sensor_id;sensor_type;location;lat;lon;timestamp;temperature;humidity
21259;DHT22;10787;53.364;-1.480;2023-06-22T00:02:17;17.40;32.30
21259;DHT22;10787;53.364;-1.480;2023-06-22T00:05:02;17.50;1.00
21259;DHT22;10787;53.364;-1.480;2023-06-22T00:07:46;17.50;7.70
21259;DHT22;10787;53.364;-1.480;2023-06-22T00:10:30;17.40;1.00
21259;DHT22;10787;53.364;-1.480;2023-06-22T00:13:15;17.40;1.00
21259;DHT22;10787;53.364;-1.480;2023-06-22T00:15:59;17.30;1.00
21259;DHT22;10787;53.364;-1.480;2023-06-22T00:18:44;17.30;55.00
21259;DHT22;10787;53.364;-1.480;2023-06-22T00:21:31;17.20;47.90
21259;DHT22;10787;53.364;-1.480;2023-06-22T00:24:14;17.20;93.50
21259;DHT22;10787;53.364;-1.480;2023-06-22T00:27:00;17.20;99.90
21259;DHT22;10787;53.364;-1.480;2023-06-22T00:29:44;17.10;99.90
21259;DHT22;10787;53.364;-1.480;2023-06-22T00:32:28;17.10;88.40
21259;DHT22;10787;53.364;-1.480;2023-06-22T00:35:13;17.00;96.40
21259;DHT22;10787;53.364;-1.480;2023-06-22T00:37:58;17.00;99.90
21259;DHT22;10787;53.364;-1.480;2023-06-22T00:40:46;16.90;96.30
21259;DHT22;10787;53.364;-1.480;2023-06-22T00:43:30;16.90;99.90
21259;DHT22;10787;53.364;-1.480;2023-06-22T00:46:15;16.90;99.90
21259;DHT22;10787;53.364;-1.480;2023-06-22T00:48:59;16.80;99.90
21259;DHT22;10787;53.364;-1.480;2023-06-22T00:51:44;16.80;99.90
21259;DHT22;10787;53.364;-1.480;2023-06-22T00:54:30;16.70;99.90
21259;DHT22;10787;53.364;-1.480;2023-06-22T00:57:15;16.70;99.90
21259;DHT22;10787;53.364;-1.480;2023-06-22T00:59:59;16.70;99.90
21259;DHT22;10787;53.364;-1.480;2023-06-22T01:02:44;16.60;99.90
21259;DHT22;10787;53.364;-1.480;2023-06-22T01:05:36;16.60;99.90
21259;DHT22;10787;53.364;-1.480;2023-06-22T01:08:40;16.60;99.90
21259;DHT22;10787;53.364;-1.480;2023-06-22T01:11:36;16.60;99.90
21259;DHT22;10787;53.364;-1.480;2023-06-22T01:14:54;16.50;99.90
21259;DHT22;10787;53.364;-1.480;2023-06-22T01:17:41;16.50;99.90
21259;DHT22;10787;53.364;-1.480;2023-06-22T01:20:28;16.50;99.90
21259;DHT22;10787;53.364;-1.480;2023-06-22T01:26:17;16.50;99.90
21259;DHT22;10787;53.364;-1.480;2023-06-22T01:29:04;16.50;99.90
21259;DHT22;10787;53.364;-1.480;2023-06-22T01:31:50;16.50;99.90
21259;DHT22;10787;53.364;-1.480;2023-06-22T01:34:35;16.50;99.90
21259;DHT22;10787;53.364;-1.480;2023-06-22T01:37:21;16.50;99.90
21259;DHT22;10787;53.364;-1.480;2023-06-22T01:40:07;16.50;99.90
21259;DHT22;10787;53.364;-1.480;2023-06-22T01:42:52;16.50;99.90
21259;DHT22;10787;53.364;-1.480;2023-06-22T01:45:37;16.60;99.90
21259;DHT22;10787;53.364;-1.480;2023-06-22T01:48:22;16.70;99.90
21259;DHT22;10787;53.364;-1.480;2023-06-22T01:51:06;16.70;99.90
21259;DHT22;10787;53.364;-1.480;2023-06-22T01:53:51;16.70;99.90
21259;DHT22;10787;53.364;-1.480;2023-06-22T01:56:35;16.70;99.90
21259;DHT22;10787;53.364;-1.480;2023-06-22T02:02:09;16.60;99.90
21259;DHT22;10787;53.364;-1.480;2023-06-22T02:05:02;16.50;99.90
21259;DHT22;10787;53.364;-1.480;2023-06-22T02:07:56;16.40;99.90
21259;DHT22;10787;53.364;-1.480;2023-06-22T02:10:44;16.30;99.90
21259;DHT22;10787;53.364;-1.480;2023-06-22T02:13:29;16.30;99.90
21259;DHT22;10787;53.364;-1.480;2023-06-22T02:16:16;16.30;99.90
21259;DHT22;10787;53.364;-1.480;2023-06-22T02:19:02;16.40;99.90
21259;DHT22;10787;53.364;-1.480;2023-06-22T02:21:50;16.40;99.90
21259;DHT22;10787;53.364;-1.480;2023-06-22T02:24:34;16.40;99.90
21259;DHT22;10787;53.364;-1.480;2023-06-22T02:27:18;16.50;99.90
21259;DHT22;10787;53.364;-1.480;2023-06-22T02:30:03;16.50;99.90
21259;DHT22;10787;53.364;-1.480;2023-06-22T02:32:47;16.50;99.90
21259;DHT22;10787;53.364;-1.480;2023-06-22T02:35:31;16.60;99.90
21259;DHT22;10787;53.364;-1.480;2023-06-22T02:38:16;16.50;99.90
21259;DHT22;10787;53.364;-1.480;2023-06-22T02:41:02;16.50;99.90
21259;DHT22;10787;53.364;-1.480;2023-06-22T02:43:46;16.50;99.90
21259;DHT22;10787;53.364;-1.480;2023-06-22T02:46:31;16.50;99.90
21259;DHT22;10787;53.364;-1.480;2023-06-22T02:49:15;16.50;99.90
21259;DHT22;10787;53.364;-1.480;2023-06-22T02:52:00;16.50;99.90
21259;DHT22;10787;53.364;-1.480;2023-06-22T02:54:44;16.50;99.90
21259;DHT22;10787;53.364;-1.480;2023-06-22T02:57:31;16.60;99.90
21259;DHT22;10787;53.364;-1.480;2023-06-22T03:00:16;16.50;99.90
21259;DHT22;10787;53.364;-1.480;2023-06-22T03:03:03;16.50;99.90
21259;DHT22;10787;53.364;-1.480;2023-06-22T03:05:47;16.50;99.90
21259;DHT22;10787;53.364;-1.480;2023-06-22T03:08:31;16.50;99.90
21259;DHT22;10787;53.364;-1.480;2023-06-22T03:11:15;16.50;99.90
21259;DHT22;10787;53.364;-1.480;2023-06-22T03:14:00;16.40;99.90
21259;DHT22;10787;53.364;-1.480;2023-06-22T03:16:45;16.40;99.90
21259;DHT22;10787;53.364;-1.480;2023-06-22T03:19:29;16.40;99.90
21259;DHT22;10787;53.364;-1.480;2023-06-22T03:22:15;16.40;99.90
21259;DHT22;10787;53.364;-1.480;2023-06-22T03:24:59;16.40;99.90
21259;DHT22;10787;53.364;-1.480;2023-06-22T03:27:44;16.40;99.90
21259;DHT22;10787;53.364;-1.480;2023-06-22T03:30:28;16.50;99.90
21259;DHT22;10787;53.364;-1.480;2023-06-22T03:33:13;16.50;99.90
21259;DHT22;10787;53.364;-1.480;2023-06-22T03:35:57;16.50;99.90
21259;DHT22;10787;53.364;-1.480;2023-06-22T03:38:42;16.50;99.90
21259;DHT22;10787;53.364;-1.480;2023-06-22T03:41:26;16.50;99.90
21259;DHT22;10787;53.364;-1.480;2023-06-22T03:44:10;16.40;99.90
21259;DHT22;10787;53.364;-1.480;2023-06-22T03:46:56;16.40;99.90
21259;DHT22;10787;53.364;-1.480;2023-06-22T03:49:40;16.40;99.90
21259;DHT22;10787;53.364;-1.480;2023-06-22T03:52:24;16.40;99.90
21259;DHT22;10787;53.364;-1.480;2023-06-22T03:55:10;16.30;99.90
21259;DHT22;10787;53.364;-1.480;2023-06-22T03:57:54;16.30;99.90
21259;DHT22;10787;53.364;-1.480;2023-06-22T04:00:41;16.30;99.90
21259;DHT22;10787;53.364;-1.480;2023-06-22T04:03:25;16.20;99.90
21259;DHT22;10787;53.364;-1.480;2023-06-22T04:06:09;16.20;99.90
21259;DHT22;10787;53.364;-1.480;2023-06-22T04:08:53;16.20;99.90
21259;DHT22;10787;53.364;-1.480;2023-06-22T04:11:37;16.20;99.90
21259;DHT22;10787;53.364;-1.480;2023-06-22T04:14:22;16.30;99.90
21259;DHT22;10787;53.364;-1.480;2023-06-22T04:17:07;16.30;99.90
21259;DHT22;10787;53.364;-1.480;2023-06-22T04:19:52;16.40;99.90
21259;DHT22;10787;53.364;-1.480;2023-06-22T04:22:36;16.40;99.90
21259;DHT22;10787;53.364;-1.480;2023-06-22T04:25:20;16.40;99.90
21259;DHT22;10787;53.364;-1.480;2023-06-22T04:28:05;16.50;99.90
21259;DHT22;10787;53.364;-1.480;2023-06-22T04:30:50;16.50;99.90
21259;DHT22;10787;53.364;-1.480;2023-06-22T04:33:35;16.50;99.90
21259;DHT22;10787;53.364;-1.480;2023-06-22T04:36:19;16.60;99.90
21259;DHT22;10787;53.364;-1.480;2023-06-22T04:39:09;16.60;99.90
21259;DHT22;10787;53.364;-1.480;2023-06-22T04:41:54;16.60;99.90
21259;DHT22;10787;53.364;-1.480;2023-06-22T04:44:44;16.60;99.90
21259;DHT22;10787;53.364;-1.480;2023-06-22T04:47:28;16.70;99.90
21259;DHT22;10787;53.364;-1.480;2023-06-22T04:50:12;16.70;99.90
21259;DHT22;10787;53.364;-1.480;2023-06-22T04:52:57;16.70;99.90
21259;DHT22;10787;53.364;-1.480;2023-06-22T04:55:42;16.70;99.90
21259;DHT22;10787;53.364;-1.480;2023-06-22T04:58:29;16.70;99.90
21259;DHT22;10787;53.364;-1.480;2023-06-22T05:01:16;16.70;99.90
21259;DHT22;10787;53.364;-1.480;2023-06-22T05:04:00;16.70;99.90
21259;DHT22;10787;53.364;-1.480;2023-06-22T05:06:46;16.70;99.90
21259;DHT22;10787;53.364;-1.480;2023-06-22T05:09:31;16.60;99.90
21259;DHT22;10787;53.364;-1.480;2023-06-22T05:12:17;16.60;99.90
21259;DHT22;10787;53.364;-1.480;2023-06-22T05:15:02;16.60;99.90
21259;DHT22;10787;53.364;-1.480;2023-06-22T05:17:46;16.60;99.90
21259;DHT22;10787;53.364;-1.480;2023-06-22T05:20:31;16.60;99.90
21259;DHT22;10787;53.364;-1.480;2023-06-22T05:23:15;16.70;99.90
21259;DHT22;10787;53.364;-1.480;2023-06-22T05:26:00;16.70;99.90
21259;DHT22;10787;53.364;-1.480;2023-06-22T05:28:45;16.70;99.90
21259;DHT22;10787;53.364;-1.480;2023-06-22T05:31:30;16.80;99.90
21259;DHT22;10787;53.364;-1.480;2023-06-22T05:34:15;17.00;99.90
21259;DHT22;10787;53.364;-1.480;2023-06-22T05:36:59;17.10;53.70
21259;DHT22;10787;53.364;-1.480;2023-06-22T05:39:44;17.30;1.00
21259;DHT22;10787;53.364;-1.480;2023-06-22T05:42:28;17.40;1.00
21259;DHT22;10787;53.364;-1.480;2023-06-22T05:45:12;17.60;1.00
21259;DHT22;10787;53.364;-1.480;2023-06-22T05:47:57;17.70;1.00
21259;DHT22;10787;53.364;-1.480;2023-06-22T05:50:42;17.80;1.00
21259;DHT22;10787;53.364;-1.480;2023-06-22T05:53:26;17.90;1.00
21259;DHT22;10787;53.364;-1.480;2023-06-22T05:56:11;18.10;1.00
21259;DHT22;10787;53.364;-1.480;2023-06-22T05:58:55;18.20;1.00
21259;DHT22;10787;53.364;-1.480;2023-06-22T06:01:39;18.30;1.00
21259;DHT22;10787;53.364;-1.480;2023-06-22T06:04:24;18.30;1.00
21259;DHT22;10787;53.364;-1.480;2023-06-22T06:07:08;18.40;1.00
21259;DHT22;10787;53.364;-1.480;2023-06-22T06:09:52;18.40;1.00
21259;DHT22;10787;53.364;-1.480;2023-06-22T06:12:37;18.40;1.00
21259;DHT22;10787;53.364;-1.480;2023-06-22T06:15:21;18.40;1.00
21259;DHT22;10787;53.364;-1.480;2023-06-22T06:18:06;18.50;1.00
21259;DHT22;10787;53.364;-1.480;2023-06-22T06:20:51;18.50;1.00
21259;DHT22;10787;53.364;-1.480;2023-06-22T06:23:35;18.50;1.00
21259;DHT22;10787;53.364;-1.480;2023-06-22T06:26:19;18.50;1.00
21259;DHT22;10787;53.364;-1.480;2023-06-22T06:29:13;18.50;1.00
21259;DHT22;10787;53.364;-1.480;2023-06-22T06:32:00;18.60;1.00
21259;DHT22;10787;53.364;-1.480;2023-06-22T06:34:44;18.60;1.00
21259;DHT22;10787;53.364;-1.480;2023-06-22T06:37:28;18.70;1.00
21259;DHT22;10787;53.364;-1.480;2023-06-22T06:40:14;18.80;1.00
21259;DHT22;10787;53.364;-1.480;2023-06-22T06:42:59;19.00;1.00
21259;DHT22;10787;53.364;-1.480;2023-06-22T06:45:44;19.10;1.00
21259;DHT22;10787;53.364;-1.480;2023-06-22T06:48:28;19.30;1.00
21259;DHT22;10787;53.364;-1.480;2023-06-22T06:51:12;19.40;1.00
21259;DHT22;10787;53.364;-1.480;2023-06-22T06:53:56;19.60;1.00
21259;DHT22;10787;53.364;-1.480;2023-06-22T06:56:40;19.70;1.00
21259;DHT22;10787;53.364;-1.480;2023-06-22T06:59:29;19.90;1.00
21259;DHT22;10787;53.364;-1.480;2023-06-22T07:02:15;20.00;1.00
21259;DHT22;10787;53.364;-1.480;2023-06-22T07:05:00;20.00;1.00
21259;DHT22;10787;53.364;-1.480;2023-06-22T07:07:44;20.20;1.00
21259;DHT22;10787;53.364;-1.480;2023-06-22T07:10:29;20.30;1.00
21259;DHT22;10787;53.364;-1.480;2023-06-22T07:13:14;20.40;1.00
21259;DHT22;10787;53.364;-1.480;2023-06-22T07:15:58;20.50;1.00
21259;DHT22;10787;53.364;-1.480;2023-06-22T07:18:43;20.60;1.00
21259;DHT22;10787;53.364;-1.480;2023-06-22T07:21:27;20.70;1.00
21259;DHT22;10787;53.364;-1.480;2023-06-22T07:24:11;20.80;1.00
21259;DHT22;10787;53.364;-1.480;2023-06-22T07:26:55;20.90;99.90
21259;DHT22;10787;53.364;-1.480;2023-06-22T07:29:43;20.90;99.90
21259;DHT22;10787;53.364;-1.480;2023-06-22T07:32:27;20.90;99.90
21259;DHT22;10787;53.364;-1.480;2023-06-22T07:35:12;21.10;1.00
21259;DHT22;10787;53.364;-1.480;2023-06-22T07:37:57;21.20;99.90
21259;DHT22;10787;53.364;-1.480;2023-06-22T07:40:41;21.40;1.00
21259;DHT22;10787;53.364;-1.480;2023-06-22T07:43:25;21.50;99.90
21259;DHT22;10787;53.364;-1.480;2023-06-22T07:46:10;21.60;99.90
21259;DHT22;10787;53.364;-1.480;2023-06-22T07:48:54;21.70;99.90
21259;DHT22;10787;53.364;-1.480;2023-06-22T07:51:38;21.80;99.90
21259;DHT22;10787;53.364;-1.480;2023-06-22T07:54:23;21.90;99.90
21259;DHT22;10787;53.364;-1.480;2023-06-22T07:57:07;22.10;99.90
21259;DHT22;10787;53.364;-1.480;2023-06-22T07:59:52;22.10;99.90
21259;DHT22;10787;53.364;-1.480;2023-06-22T08:02:36;22.30;99.90
21259;DHT22;10787;53.364;-1.480;2023-06-22T08:05:20;22.30;99.90
21259;DHT22;10787;53.364;-1.480;2023-06-22T08:08:04;22.60;1.00
21259;DHT22;10787;53.364;-1.480;2023-06-22T08:10:48;22.90;1.00
21259;DHT22;10787;53.364;-1.480;2023-06-22T08:13:32;22.90;99.90
21259;DHT22;10787;53.364;-1.480;2023-06-22T08:16:16;22.70;99.90
21259;DHT22;10787;53.364;-1.480;2023-06-22T08:19:00;22.70;99.90
21259;DHT22;10787;53.364;-1.480;2023-06-22T08:21:45;22.60;99.90
21259;DHT22;10787;53.364;-1.480;2023-06-22T08:24:29;22.70;99.90
21259;DHT22;10787;53.364;-1.480;2023-06-22T08:27:14;22.90;99.90
21259;DHT22;10787;53.364;-1.480;2023-06-22T08:30:01;23.00;99.90
21259;DHT22;10787;53.364;-1.480;2023-06-22T08:32:45;23.10;99.90
21259;DHT22;10787;53.364;-1.480;2023-06-22T08:35:30;23.20;99.90
21259;DHT22;10787;53.364;-1.480;2023-06-22T08:38:15;23.30;99.90
21259;DHT22;10787;53.364;-1.480;2023-06-22T08:40:59;23.40;99.90
21259;DHT22;10787;53.364;-1.480;2023-06-22T08:43:45;23.70;99.90
21259;DHT22;10787;53.364;-1.480;2023-06-22T08:46:30;23.90;99.90
21259;DHT22;10787;53.364;-1.480;2023-06-22T08:49:17;24.20;99.90
21259;DHT22;10787;53.364;-1.480;2023-06-22T08:52:01;24.40;99.90
21259;DHT22;10787;53.364;-1.480;2023-06-22T08:54:46;24.60;99.90
21259;DHT22;10787;53.364;-1.480;2023-06-22T08:57:31;24.60;99.90
21259;DHT22;10787;53.364;-1.480;2023-06-22T09:00:17;24.60;99.90
21259;DHT22;10787;53.364;-1.480;2023-06-22T09:03:03;24.50;99.90
21259;DHT22;10787;53.364;-1.480;2023-06-22T09:05:48;24.40;99.90
21259;DHT22;10787;53.364;-1.480;2023-06-22T09:08:33;24.20;99.90
21259;DHT22;10787;53.364;-1.480;2023-06-22T09:11:17;24.00;99.90
21259;DHT22;10787;53.364;-1.480;2023-06-22T09:14:02;23.90;99.90
21259;DHT22;10787;53.364;-1.480;2023-06-22T09:16:47;23.70;99.90
21259;DHT22;10787;53.364;-1.480;2023-06-22T09:19:31;23.70;99.90
21259;DHT22;10787;53.364;-1.480;2023-06-22T09:22:16;23.60;99.90
21259;DHT22;10787;53.364;-1.480;2023-06-22T09:25:01;23.50;99.90
21259;DHT22;10787;53.364;-1.480;2023-06-22T09:27:45;23.40;99.90
21259;DHT22;10787;53.364;-1.480;2023-06-22T09:30:30;23.50;99.90
21259;DHT22;10787;53.364;-1.480;2023-06-22T09:33:14;23.80;99.90
21259;DHT22;10787;53.364;-1.480;2023-06-22T09:35:58;23.90;99.90
21259;DHT22;10787;53.364;-1.480;2023-06-22T09:38:42;24.10;99.90
21259;DHT22;10787;53.364;-1.480;2023-06-22T09:41:26;24.20;99.90
21259;DHT22;10787;53.364;-1.480;2023-06-22T09:44:10;24.40;99.90
21259;DHT22;10787;53.364;-1.480;2023-06-22T09:46:54;24.60;99.90
21259;DHT22;10787;53.364;-1.480;2023-06-22T09:49:39;24.70;99.90
21259;DHT22;10787;53.364;-1.480;2023-06-22T09:52:23;24.70;99.90
21259;DHT22;10787;53.364;-1.480;2023-06-22T09:55:08;24.90;99.90
21259;DHT22;10787;53.364;-1.480;2023-06-22T09:57:53;25.10;99.90
21259;DHT22;10787;53.364;-1.480;2023-06-22T10:00:38;25.30;99.90
21259;DHT22;10787;53.364;-1.480;2023-06-22T10:03:22;25.50;99.90
21259;DHT22;10787;53.364;-1.480;2023-06-22T10:06:07;25.70;99.90
21259;DHT22;10787;53.364;-1.480;2023-06-22T10:08:52;26.20;99.90
21259;DHT22;10787;53.364;-1.480;2023-06-22T10:11:37;26.40;99.90
21259;DHT22;10787;53.364;-1.480;2023-06-22T10:14:21;26.60;99.90
21259;DHT22;10787;53.364;-1.480;2023-06-22T10:17:05;26.90;99.90
21259;DHT22;10787;53.364;-1.480;2023-06-22T10:19:51;27.00;99.90
21259;DHT22;10787;53.364;-1.480;2023-06-22T10:22:36;27.00;99.90
21259;DHT22;10787;53.364;-1.480;2023-06-22T10:25:21;27.10;99.90
21259;DHT22;10787;53.364;-1.480;2023-06-22T10:28:06;27.00;99.90
21259;DHT22;10787;53.364;-1.480;2023-06-22T10:30:51;26.90;99.90
21259;DHT22;10787;53.364;-1.480;2023-06-22T10:33:36;26.90;99.90
21259;DHT22;10787;53.364;-1.480;2023-06-22T10:36:21;27.20;99.90
21259;DHT22;10787;53.364;-1.480;2023-06-22T10:39:06;27.60;99.90
21259;DHT22;10787;53.364;-1.480;2023-06-22T10:41:50;27.60;99.90
21259;DHT22;10787;53.364;-1.480;2023-06-22T10:44:34;27.60;99.90
21259;DHT22;10787;53.364;-1.480;2023-06-22T10:47:18;27.30;99.90
21259;DHT22;10787;53.364;-1.480;2023-06-22T10:50:03;27.40;99.90
21259;DHT22;10787;53.364;-1.480;2023-06-22T10:52:48;27.30;99.90
21259;DHT22;10787;53.364;-1.480;2023-06-22T10:55:32;27.30;99.90
21259;DHT22;10787;53.364;-1.480;2023-06-22T10:58:17;27.20;99.90
21259;DHT22;10787;53.364;-1.480;2023-06-22T11:01:01;26.70;99.90
21259;DHT22;10787;53.364;-1.480;2023-06-22T11:03:47;26.10;99.90
21259;DHT22;10787;53.364;-1.480;2023-06-22T11:06:31;25.70;99.90
21259;DHT22;10787;53.364;-1.480;2023-06-22T11:09:16;25.40;99.90
21259;DHT22;10787;53.364;-1.480;2023-06-22T11:12:07;25.20;99.90
21259;DHT22;10787;53.364;-1.480;2023-06-22T11:14:51;25.00;99.90
21259;DHT22;10787;53.364;-1.480;2023-06-22T11:17:35;24.80;99.90
21259;DHT22;10787;53.364;-1.480;2023-06-22T11:20:20;24.70;99.90
21259;DHT22;10787;53.364;-1.480;2023-06-22T11:23:05;24.60;99.90
21259;DHT22;10787;53.364;-1.480;2023-06-22T11:25:53;24.50;99.90
21259;DHT22;10787;53.364;-1.480;2023-06-22T11:28:37;24.40;99.90
21259;DHT22;10787;53.364;-1.480;2023-06-22T11:31:21;24.50;99.90
21259;DHT22;10787;53.364;-1.480;2023-06-22T11:34:05;24.60;99.90
21259;DHT22;10787;53.364;-1.480;2023-06-22T11:36:49;24.70;99.90
21259;DHT22;10787;53.364;-1.480;2023-06-22T11:39:34;24.80;99.90
21259;DHT22;10787;53.364;-1.480;2023-06-22T11:42:18;24.80;99.90
21259;DHT22;10787;53.364;-1.480;2023-06-22T11:45:04;24.80;99.90
21259;DHT22;10787;53.364;-1.480;2023-06-22T11:47:48;25.00;99.90
21259;DHT22;10787;53.364;-1.480;2023-06-22T11:50:32;25.20;99.90
21259;DHT22;10787;53.364;-1.480;2023-06-22T11:53:21;25.60;99.90
21259;DHT22;10787;53.364;-1.480;2023-06-22T11:56:05;26.00;99.90
21259;DHT22;10787;53.364;-1.480;2023-06-22T11:58:49;26.20;99.90
21259;DHT22;10787;53.364;-1.480;2023-06-22T12:01:33;26.40;99.90
21259;DHT22;10787;53.364;-1.480;2023-06-22T12:04:18;26.60;99.90
21259;DHT22;10787;53.364;-1.480;2023-06-22T12:07:03;27.70;1.00
21259;DHT22;10787;53.364;-1.480;2023-06-22T12:09:47;28.60;1.00
21259;DHT22;10787;53.364;-1.480;2023-06-22T12:12:31;29.60;1.00
21259;DHT22;10787;53.364;-1.480;2023-06-22T12:15:15;30.30;1.00
21259;DHT22;10787;53.364;-1.480;2023-06-22T12:18:00;30.70;1.00
21259;DHT22;10787;53.364;-1.480;2023-06-22T12:20:45;31.30;1.00
21259;DHT22;10787;53.364;-1.480;2023-06-22T12:23:29;31.50;1.00
21259;DHT22;10787;53.364;-1.480;2023-06-22T12:26:19;31.60;99.90
21259;DHT22;10787;53.364;-1.480;2023-06-22T12:29:04;31.90;99.90
21259;DHT22;10787;53.364;-1.480;2023-06-22T12:31:48;32.20;99.90
21259;DHT22;10787;53.364;-1.480;2023-06-22T12:34:32;32.40;99.90
21259;DHT22;10787;53.364;-1.480;2023-06-22T12:37:16;32.40;99.90
21259;DHT22;10787;53.364;-1.480;2023-06-22T12:40:01;32.50;99.90
21259;DHT22;10787;53.364;-1.480;2023-06-22T12:42:45;33.00;99.90
21259;DHT22;10787;53.364;-1.480;2023-06-22T12:45:30;33.20;99.90
21259;DHT22;10787;53.364;-1.480;2023-06-22T12:48:17;33.60;99.90
21259;DHT22;10787;53.364;-1.480;2023-06-22T12:51:01;33.10;99.90
21259;DHT22;10787;53.364;-1.480;2023-06-22T12:53:46;33.90;99.90
21259;DHT22;10787;53.364;-1.480;2023-06-22T12:56:30;34.40;99.90
21259;DHT22;10787;53.364;-1.480;2023-06-22T12:59:14;34.80;99.90
21259;DHT22;10787;53.364;-1.480;2023-06-22T13:01:58;35.00;99.90
21259;DHT22;10787;53.364;-1.480;2023-06-22T13:04:42;35.00;99.90
21259;DHT22;10787;53.364;-1.480;2023-06-22T13:07:27;35.10;99.90
21259;DHT22;10787;53.364;-1.480;2023-06-22T13:10:11;34.70;99.90
21259;DHT22;10787;53.364;-1.480;2023-06-22T13:12:56;34.10;99.90
21259;DHT22;10787;53.364;-1.480;2023-06-22T13:15:44;34.00;99.90
21259;DHT22;10787;53.364;-1.480;2023-06-22T13:18:28;34.60;99.90
21259;DHT22;10787;53.364;-1.480;2023-06-22T13:21:12;35.40;99.90
21259;DHT22;10787;53.364;-1.480;2023-06-22T13:23:58;36.30;99.90
21259;DHT22;10787;53.364;-1.480;2023-06-22T13:26:42;36.70;99.90
21259;DHT22;10787;53.364;-1.480;2023-06-22T13:29:27;37.10;99.90
21259;DHT22;10787;53.364;-1.480;2023-06-22T13:32:11;36.40;99.90
21259;DHT22;10787;53.364;-1.480;2023-06-22T13:34:55;36.10;99.90
21259;DHT22;10787;53.364;-1.480;2023-06-22T13:37:39;36.00;99.90
21259;DHT22;10787;53.364;-1.480;2023-06-22T13:40:24;35.10;99.90
21259;DHT22;10787;53.364;-1.480;2023-06-22T13:43:08;35.70;99.90
21259;DHT22;10787;53.364;-1.480;2023-06-22T13:45:53;35.80;99.90
21259;DHT22;10787;53.364;-1.480;2023-06-22T13:48:37;35.60;99.90
21259;DHT22;10787;53.364;-1.480;2023-06-22T13:51:22;35.40;99.90
21259;DHT22;10787;53.364;-1.480;2023-06-22T13:54:06;34.30;99.90
21259;DHT22;10787;53.364;-1.480;2023-06-22T13:56:50;33.20;99.90
21259;DHT22;10787;53.364;-1.480;2023-06-22T13:59:34;32.50;99.90
21259;DHT22;10787;53.364;-1.480;2023-06-22T14:02:19;31.70;99.90
21259;DHT22;10787;53.364;-1.480;2023-06-22T14:05:03;30.90;99.90
21259;DHT22;10787;53.364;-1.480;2023-06-22T14:07:48;30.30;99.90
21259;DHT22;10787;53.364;-1.480;2023-06-22T14:10:32;29.80;99.90
21259;DHT22;10787;53.364;-1.480;2023-06-22T14:13:16;29.30;99.90
21259;DHT22;10787;53.364;-1.480;2023-06-22T14:16:01;28.70;99.90
21259;DHT22;10787;53.364;-1.480;2023-06-22T14:18:46;28.40;99.90
21259;DHT22;10787;53.364;-1.480;2023-06-22T14:21:30;27.90;99.90
21259;DHT22;10787;53.364;-1.480;2023-06-22T14:24:21;27.50;99.90
21259;DHT22;10787;53.364;-1.480;2023-06-22T14:27:20;27.10;99.90
21259;DHT22;10787;53.364;-1.480;2023-06-22T14:30:05;26.70;99.90
21259;DHT22;10787;53.364;-1.480;2023-06-22T14:32:49;26.50;99.90
21259;DHT22;10787;53.364;-1.480;2023-06-22T14:35:39;26.30;99.90
21259;DHT22;10787;53.364;-1.480;2023-06-22T14:38:32;25.90;99.90
21259;DHT22;10787;53.364;-1.480;2023-06-22T14:41:18;25.70;99.90
21259;DHT22;10787;53.364;-1.480;2023-06-22T14:44:02;25.60;99.90
21259;DHT22;10787;53.364;-1.480;2023-06-22T14:46:46;25.50;99.90
21259;DHT22;10787;53.364;-1.480;2023-06-22T14:49:30;25.60;99.90
21259;DHT22;10787;53.364;-1.480;2023-06-22T14:52:14;25.50;99.90
21259;DHT22;10787;53.364;-1.480;2023-06-22T14:54:58;25.30;99.90
21259;DHT22;10787;53.364;-1.480;2023-06-22T14:57:42;25.40;99.90
21259;DHT22;10787;53.364;-1.480;2023-06-22T15:00:27;25.50;99.90
21259;DHT22;10787;53.364;-1.480;2023-06-22T15:03:11;25.50;99.90
21259;DHT22;10787;53.364;-1.480;2023-06-22T15:06:01;25.60;99.90
21259;DHT22;10787;53.364;-1.480;2023-06-22T15:08:46;25.60;99.90
21259;DHT22;10787;53.364;-1.480;2023-06-22T15:11:30;25.50;99.90
21259;DHT22;10787;53.364;-1.480;2023-06-22T15:14:15;25.40;99.90
21259;DHT22;10787;53.364;-1.480;2023-06-22T15:16:59;25.20;99.90
21259;DHT22;10787;53.364;-1.480;2023-06-22T15:19:43;25.10;99.90
21259;DHT22;10787;53.364;-1.480;2023-06-22T15:22:28;25.10;99.90
21259;DHT22;10787;53.364;-1.480;2023-06-22T15:25:12;25.10;99.90
21259;DHT22;10787;53.364;-1.480;2023-06-22T15:27:56;25.20;99.90
21259;DHT22;10787;53.364;-1.480;2023-06-22T15:30:41;25.30;99.90
21259;DHT22;10787;53.364;-1.480;2023-06-22T15:33:25;25.30;99.90
21259;DHT22;10787;53.364;-1.480;2023-06-22T15:36:09;25.30;99.90
21259;DHT22;10787;53.364;-1.480;2023-06-22T15:38:54;25.20;99.90
21259;DHT22;10787;53.364;-1.480;2023-06-22T15:41:41;25.20;99.90
21259;DHT22;10787;53.364;-1.480;2023-06-22T15:44:26;25.30;99.90
21259;DHT22;10787;53.364;-1.480;2023-06-22T15:47:10;25.20;99.90
21259;DHT22;10787;53.364;-1.480;2023-06-22T15:49:54;25.20;99.90
21259;DHT22;10787;53.364;-1.480;2023-06-22T15:52:42;25.20;99.90
21259;DHT22;10787;53.364;-1.480;2023-06-22T15:55:26;25.30;99.90
21259;DHT22;10787;53.364;-1.480;2023-06-22T15:58:11;25.20;99.90
21259;DHT22;10787;53.364;-1.480;2023-06-22T16:00:56;25.40;99.90
21259;DHT22;10787;53.364;-1.480;2023-06-22T16:03:41;25.40;99.90
21259;DHT22;10787;53.364;-1.480;2023-06-22T16:06:24;25.50;99.90
21259;DHT22;10787;53.364;-1.480;2023-06-22T16:09:08;25.60;99.90
21259;DHT22;10787;53.364;-1.480;2023-06-22T16:11:54;25.60;99.90
21259;DHT22;10787;53.364;-1.480;2023-06-22T16:14:38;25.70;99.90
21259;DHT22;10787;53.364;-1.480;2023-06-22T16:17:24;25.80;99.90
21259;DHT22;10787;53.364;-1.480;2023-06-22T16:20:11;26.00;99.90
21259;DHT22;10787;53.364;-1.480;2023-06-22T16:22:55;26.30;99.90
21259;DHT22;10787;53.364;-1.480;2023-06-22T16:25:40;26.40;99.90
21259;DHT22;10787;53.364;-1.480;2023-06-22T16:28:24;26.40;99.90
21259;DHT22;10787;53.364;-1.480;2023-06-22T16:31:08;26.70;99.90
21259;DHT22;10787;53.364;-1.480;2023-06-22T16:33:53;27.40;99.90
21259;DHT22;10787;53.364;-1.480;2023-06-22T16:36:37;28.30;99.90
21259;DHT22;10787;53.364;-1.480;2023-06-22T16:39:21;30.00;99.90
21259;DHT22;10787;53.364;-1.480;2023-06-22T16:42:06;30.10;99.90
21259;DHT22;10787;53.364;-1.480;2023-06-22T16:44:50;30.10;99.90
21259;DHT22;10787;53.364;-1.480;2023-06-22T16:47:34;30.00;99.90
21259;DHT22;10787;53.364;-1.480;2023-06-22T16:50:19;29.90;99.90
21259;DHT22;10787;53.364;-1.480;2023-06-22T16:53:04;29.90;99.90
21259;DHT22;10787;53.364;-1.480;2023-06-22T16:55:49;31.00;99.90
21259;DHT22;10787;53.364;-1.480;2023-06-22T16:58:35;32.30;99.90
21259;DHT22;10787;53.364;-1.480;2023-06-22T17:01:22;33.40;99.90
21259;DHT22;10787;53.364;-1.480;2023-06-22T17:04:09;33.60;99.90
21259;DHT22;10787;53.364;-1.480;2023-06-22T17:06:59;33.30;99.90
21259;DHT22;10787;53.364;-1.480;2023-06-22T17:09:47;33.00;99.90
21259;DHT22;10787;53.364;-1.480;2023-06-22T17:12:31;32.50;99.90
21259;DHT22;10787;53.364;-1.480;2023-06-22T17:15:16;31.90;99.90